Time;durP1;ratioP1;P1;durP2;ratioP2;P2;SDS_P1;SDS_P2;PMS_P1;PMS_P2;Temp;Humidity;BMP_temperature;BMP_pressure;BME280_temperature;BME280_humidity;BME280_pressure;Samples;Min_cycle;Max_cycle;Signal;HPM_P1;HPM_P2
2023/06/23 00:01:45;;;;;;;;;;;;;;;24.59;70.63;99861.66;5093148;28;20390;-36
2023/06/23 00:04:10;;;;;;;;;;;;;;;24.58;70.46;99859.25;5093213;28;19912;-36
2023/06/23 00:06:35;;;;;;;;;;;;;;;24.53;70.55;99859.31;5093179;28;19919;-37
2023/06/23 00:09:01;;;;;;;;;;;;;;;24.49;71.00;99859.03;5093117;28;19934;-36
2023/06/23 00:11:27;;;;;;;;;;;;;;;24.84;68.16;99869.72;5073030;28;19920;-36
2023/06/23 00:13:52;;;;;;;;;;;;;;;24.99;66.60;99861.34;5075082;28;19919;-37
2023/06/23 00:16:17;;;;;;;;;;;;;;;24.77;68.19;99864.69;5091179;28;20352;-37
2023/06/23 00:18:43;;;;;;;;;;;;;;;24.61;68.80;99864.06;5092573;28;20368;-37
2023/06/23 00:21:09;;;;;;;;;;;;;;;24.81;68.48;99859.44;5092873;28;19912;-37
2023/06/23 00:23:34;;;;;;;;;;;;;;;24.66;69.36;99855.84;5092044;28;19912;-37
2023/06/23 00:26:00;;;;;;;;;;;;;;;24.50;70.31;99857.97;5092309;28;19912;-37
2023/06/23 00:28:26;;;;;;;;;;;;;;;24.54;70.27;99856.28;5092941;28;19938;-37
2023/06/23 00:30:51;;;;;;;;;;;;;;;24.76;68.37;99863.03;5092967;28;20343;-37
2023/06/23 00:33:17;;;;;;;;;;;;;;;24.81;68.34;99862.16;5092601;28;19930;-36
2023/06/23 00:35:42;;;;;;;;;;;;;;;24.90;68.38;99861.22;5092764;28;19923;-37
2023/06/23 00:38:08;;;;;;;;;;;;;;;25.02;67.10;99866.19;5092507;28;19912;-37
2023/06/23 00:40:34;;;;;;;;;;;;;;;24.97;67.72;99858.91;5092355;28;20006;-36
2023/06/23 00:42:59;;;;;;;;;;;;;;;24.96;68.31;99864.66;5092480;28;20352;-37
2023/06/23 00:45:24;;;;;;;;;;;;;;;24.95;68.27;99865.75;5092323;28;19916;-36
2023/06/23 00:47:50;;;;;;;;;;;;;;;24.93;68.30;99874.22;5092424;28;19962;-36
2023/06/23 00:50:17;;;;;;;;;;;;;;;24.98;67.83;99870.63;5092366;28;19943;-36
2023/06/23 00:52:49;;;;;;;;;;;;;;;25.02;67.78;99868.91;5092345;28;19922;-36
2023/06/23 00:55:15;;;;;;;;;;;;;;;24.85;69.71;99871.38;5091924;28;19985;-36
2023/06/23 00:57:40;;;;;;;;;;;;;;;24.88;68.64;99863.38;5092256;28;19916;-36
2023/06/23 01:00:13;;;;;;;;;;;;;;;24.87;68.37;99869.97;5091784;28;19919;-36
2023/06/23 01:02:38;;;;;;;;;;;;;;;24.96;67.46;99865.47;5091703;28;19912;-36
2023/06/23 01:05:04;;;;;;;;;;;;;;;24.78;68.70;99864.34;5091664;28;19966;-36
2023/06/23 01:07:40;;;;;;;;;;;;;;;25.02;67.60;99859.91;5091692;28;20451;-36
2023/06/23 01:10:31;;;;;;;;;;;;;;;24.85;68.68;99863.19;5091643;28;19912;-37
2023/06/23 01:13:03;;;;;;;;;;;;;;;25.01;67.43;99863.75;5091793;28;19919;-37
2023/06/23 01:15:36;;;;;;;;;;;;;;;25.09;66.69;99863.91;5091841;28;20007;-37
2023/06/23 01:18:06;;;;;;;;;;;;;;;24.85;67.24;99836.78;5091464;28;20089;-37
2023/06/23 01:20:35;;;;;;;;;;;;;;;24.79;68.71;99857.03;5091480;28;20106;-37
2023/06/23 01:23:19;;;;;;;;;;;;;;;24.88;68.70;99855.22;5091680;28;19912;-38
2023/06/23 01:25:53;;;;;;;;;;;;;;;25.05;68.32;99853.88;5091481;28;19923;-37
2023/06/23 01:28:18;;;;;;;;;;;;;;;24.98;67.81;99849.66;5091640;28;19957;-36
2023/06/23 01:30:45;;;;;;;;;;;;;;;25.44;66.38;99855.44;5091384;28;19923;-37
2023/06/23 01:33:15;;;;;;;;;;;;;;;25.48;66.63;99849.09;5091445;28;19924;-37
2023/06/23 01:35:43;;;;;;;;;;;;;;;25.41;67.12;99842.41;5090691;28;19959;-37
2023/06/23 01:38:18;;;;;;;;;;;;;;;25.55;66.70;99838.63;5091051;28;20430;-37
2023/06/23 01:40:46;;;;;;;;;;;;;;;24.73;69.96;99836.41;5089900;28;19912;-37
2023/06/23 01:43:13;;;;;;;;;;;;;;;24.09;72.92;99836.72;5091218;28;19953;-36
2023/06/23 01:45:39;;;;;;;;;;;;;;;23.99;73.41;99836.88;5089170;28;19958;-36
2023/06/23 01:48:06;;;;;;;;;;;;;;;23.99;73.74;99842.31;5091239;28;19945;-37
2023/06/23 01:50:33;;;;;;;;;;;;;;;24.24;72.95;99851.22;5090897;28;20072;-37
2023/06/23 01:53:00;;;;;;;;;;;;;;;24.08;73.81;99847.91;5090836;28;19919;-38
2023/06/23 01:55:26;;;;;;;;;;;;;;;24.15;73.70;99853.78;5090798;28;19920;-36
2023/06/23 01:57:53;;;;;;;;;;;;;;;23.97;74.45;99850.75;5090881;28;19999;-36
2023/06/23 02:00:21;;;;;;;;;;;;;;;24.09;74.03;99847.59;5091264;28;19912;-37
2023/06/23 02:02:48;;;;;;;;;;;;;;;23.98;74.78;99848.81;5091360;28;19990;-37
2023/06/23 02:05:14;;;;;;;;;;;;;;;24.16;73.98;99852.69;5090749;28;20364;-37
2023/06/23 02:07:41;;;;;;;;;;;;;;;24.16;73.54;99850.78;5091250;28;20383;-38
2023/06/23 02:10:07;;;;;;;;;;;;;;;24.28;73.49;99852.28;5090572;28;19919;-38
2023/06/23 02:12:34;;;;;;;;;;;;;;;24.17;73.45;99857.03;5090928;28;20425;-37
2023/06/23 02:15:00;;;;;;;;;;;;;;;24.05;74.12;99865.59;5090636;28;19912;-37
2023/06/23 02:17:26;;;;;;;;;;;;;;;24.04;74.16;99861.25;5090656;28;19922;-37
2023/06/23 02:19:53;;;;;;;;;;;;;;;23.94;74.74;99864.91;5090681;28;19920;-37
2023/06/23 02:22:20;;;;;;;;;;;;;;;23.97;74.21;99874.38;5090746;28;19912;-37
2023/06/23 02:24:46;;;;;;;;;;;;;;;24.02;73.83;99866.16;5090734;28;19951;-37
2023/06/23 02:27:12;;;;;;;;;;;;;;;24.07;73.43;99865.31;5090643;28;19970;-37
2023/06/23 02:29:38;;;;;;;;;;;;;;;24.14;73.32;99869.31;5090709;28;19919;-37
2023/06/23 02:32:04;;;;;;;;;;;;;;;23.97;73.72;99863.50;5105644;28;19958;-37
2023/06/23 02:34:29;;;;;;;;;;;;;;;23.98;73.66;99871.38;5101923;28;19959;-37
2023/06/23 02:36:57;;;;;;;;;;;;;;;23.90;73.98;99880.16;5111056;28;20260;-37
2023/06/23 02:39:23;;;;;;;;;;;;;;;23.97;73.70;99875.22;5110910;28;19919;-37
2023/06/23 02:41:51;;;;;;;;;;;;;;;23.89;74.24;99881.25;5106899;28;19934;-37
2023/06/23 02:44:18;;;;;;;;;;;;;;;23.86;74.83;99879.13;5091297;28;19919;-37
2023/06/23 02:46:44;;;;;;;;;;;;;;;23.93;73.97;99884.22;5087531;28;20411;-36
2023/06/23 02:49:14;;;;;;;;;;;;;;;23.90;74.17;99888.31;5092002;28;19969;-37
2023/06/23 02:51:41;;;;;;;;;;;;;;;23.74;75.00;99893.09;5088132;28;19912;-37
2023/06/23 02:54:08;;;;;;;;;;;;;;;23.62;76.16;99889.94;5092521;28;19916;-37
2023/06/23 02:56:36;;;;;;;;;;;;;;;23.66;75.82;99880.13;5094355;28;19916;-37
2023/06/23 02:59:03;;;;;;;;;;;;;;;23.79;75.48;99884.09;5094539;28;19912;-37
2023/06/23 03:01:31;;;;;;;;;;;;;;;23.85;74.25;99891.09;5091769;28;19923;-37
2023/06/23 03:03:56;;;;;;;;;;;;;;;23.75;74.56;99891.97;5091393;28;19916;-37
2023/06/23 03:06:22;;;;;;;;;;;;;;;23.84;73.91;99889.47;5094114;28;20470;-37
2023/06/23 03:08:48;;;;;;;;;;;;;;;23.79;74.49;99890.31;5091530;28;20379;-36
2023/06/23 03:11:20;;;;;;;;;;;;;;;23.75;74.18;99889.25;5092684;28;19912;-36
2023/06/23 03:13:46;;;;;;;;;;;;;;;23.73;74.73;99885.22;5094215;28;20340;-37
2023/06/23 03:16:13;;;;;;;;;;;;;;;24.41;71.89;99889.63;5093885;28;20395;-36
2023/06/23 03:18:43;;;;;;;;;;;;;;;25.06;69.02;99889.00;5092705;28;19913;-37
2023/06/23 03:21:09;;;;;;;;;;;;;;;25.39;67.10;99896.38;5085165;28;20023;-37
2023/06/23 03:23:37;;;;;;;;;;;;;;;25.65;65.84;99889.38;5088785;28;20033;-36
2023/06/23 03:26:03;;;;;;;;;;;;;;;25.81;64.92;99897.28;5093591;28;19912;-37
2023/06/23 03:28:30;;;;;;;;;;;;;;;25.88;64.67;99892.22;5094068;28;19919;-36
2023/06/23 03:31:02;;;;;;;;;;;;;;;25.99;64.33;99892.84;5093623;28;19916;-36
2023/06/23 03:33:35;;;;;;;;;;;;;;;25.97;64.09;99890.47;5093567;28;19923;-36
2023/06/23 03:36:12;;;;;;;;;;;;;;;26.07;64.04;99895.69;5093566;28;19999;-36
2023/06/23 03:38:42;;;;;;;;;;;;;;;26.13;64.05;99883.56;5093147;28;19961;-36
2023/06/23 03:41:09;;;;;;;;;;;;;;;26.27;63.66;99890.94;5093473;28;20569;-36
2023/06/23 03:43:37;;;;;;;;;;;;;;;26.47;63.14;99893.22;5093358;28;20321;-36
2023/06/23 03:46:10;;;;;;;;;;;;;;;26.70;62.44;99896.03;5092524;28;19939;-37
2023/06/23 03:48:38;;;;;;;;;;;;;;;26.80;61.47;99884.88;5092272;28;19966;-36
2023/06/23 03:51:04;;;;;;;;;;;;;;;26.92;61.79;99897.97;5092212;28;19913;-36
2023/06/23 03:53:31;;;;;;;;;;;;;;;26.98;61.21;99895.94;5092164;28;19935;-36
2023/06/23 03:55:57;;;;;;;;;;;;;;;27.24;60.12;99909.78;5091522;28;20018;-44
2023/06/23 03:58:23;;;;;;;;;;;;;;;27.52;59.52;99910.47;5092311;28;19916;-42
2023/06/23 04:00:49;;;;;;;;;;;;;;;27.81;58.75;99903.72;5093075;28;20367;-42
2023/06/23 04:03:15;;;;;;;;;;;;;;;27.94;58.21;99902.84;5093229;28;19916;-43
2023/06/23 04:05:41;;;;;;;;;;;;;;;28.03;57.58;99902.88;5093333;28;20010;-40
2023/06/23 04:08:09;;;;;;;;;;;;;;;28.09;57.31;99904.34;5093175;28;19991;-41
2023/06/23 04:10:35;;;;;;;;;;;;;;;28.23;56.45;99901.47;5092818;28;19926;-43
2023/06/23 04:13:01;;;;;;;;;;;;;;;28.39;56.33;99899.91;5093189;28;20303;-43
2023/06/23 04:15:28;;;;;;;;;;;;;;;28.80;54.59;99898.69;5092501;28;19920;-43
2023/06/23 04:17:55;;;;;;;;;;;;;;;29.12;54.33;99907.53;5092184;28;20587;-43
2023/06/23 04:20:22;;;;;;;;;;;;;;;29.07;53.82;99901.41;5092069;28;19935;-41
2023/06/23 04:22:49;;;;;;;;;;;;;;;27.73;57.07;99905.28;5092113;28;19931;-41
2023/06/23 04:25:16;;;;;;;;;;;;;;;27.63;57.86;99916.50;5091964;28;19912;-42
2023/06/23 04:27:42;;;;;;;;;;;;;;;27.60;57.95;99914.38;5092281;28;20014;-42
2023/06/23 04:30:08;;;;;;;;;;;;;;;27.56;58.39;99911.47;5091777;28;19919;-42
2023/06/23 04:32:35;;;;;;;;;;;;;;;27.65;58.16;99906.84;5091819;28;20394;-43
2023/06/23 04:35:00;;;;;;;;;;;;;;;27.78;57.66;99913.38;5091730;28;20384;-42
2023/06/23 04:37:43;;;;;;;;;;;;;;;28.07;56.95;99907.38;5091740;28;19912;-42
2023/06/23 04:40:11;;;;;;;;;;;;;;;28.26;55.91;99909.06;5091196;28;20376;-42
2023/06/23 04:42:47;;;;;;;;;;;;;;;28.46;55.04;99904.91;5090538;28;19916;-43
2023/06/23 04:45:17;;;;;;;;;;;;;;;28.92;53.15;99902.72;5091302;28;19912;-44
2023/06/23 04:47:45;;;;;;;;;;;;;;;29.30;52.45;99902.88;5091106;28;20240;-43
2023/06/23 04:50:12;;;;;;;;;;;;;;;29.13;52.92;99909.19;5091051;28;19969;-42
2023/06/23 04:52:40;;;;;;;;;;;;;;;29.51;51.43;99913.97;5091070;28;19918;-43
2023/06/23 04:55:06;;;;;;;;;;;;;;;29.90;49.99;99911.28;5091098;28;19919;-42
2023/06/23 04:57:33;;;;;;;;;;;;;;;29.98;49.72;99913.97;5090276;28;19916;-42
2023/06/23 05:00:00;;;;;;;;;;;;;;;30.13;49.17;99922.78;5090189;28;19912;-42
2023/06/23 05:02:27;;;;;;;;;;;;;;;30.25;48.55;99928.34;5090380;28;19915;-41
2023/06/23 05:04:53;;;;;;;;;;;;;;;30.45;48.50;99926.84;5090790;28;20287;-42
2023/06/23 05:07:20;;;;;;;;;;;;;;;30.86;46.86;99917.00;5090685;28;19916;-43
2023/06/23 05:09:48;;;;;;;;;;;;;;;30.79;47.48;99920.28;5089913;28;19916;-43
2023/06/23 05:12:15;;;;;;;;;;;;;;;30.74;47.92;99920.47;5090657;28;19955;-42
2023/06/23 05:14:41;;;;;;;;;;;;;;;30.94;46.96;99915.38;5091024;28;20241;-43
2023/06/23 05:17:08;;;;;;;;;;;;;;;30.99;47.32;99915.16;5091258;28;20348;-43
2023/06/23 05:19:36;;;;;;;;;;;;;;;31.72;44.31;99917.34;5082606;28;19916;-42
2023/06/23 05:22:08;;;;;;;;;;;;;;;31.63;44.30;99918.59;5080716;28;20010;-42
2023/06/23 05:24:36;;;;;;;;;;;;;;;32.09;43.08;99913.84;5070651;28;20360;-41
2023/06/23 05:27:02;;;;;;;;;;;;;;;31.94;43.61;99920.81;5069935;28;19916;-41
2023/06/23 05:29:28;;;;;;;;;;;;;;;31.95;43.54;99922.41;5069844;28;19966;-43
2023/06/23 05:31:54;;;;;;;;;;;;;;;31.99;43.12;99917.00;5070833;28;19921;-42
2023/06/23 05:34:21;;;;;;;;;;;;;;;32.62;41.15;99920.22;5071190;28;19916;-42
2023/06/23 05:36:48;;;;;;;;;;;;;;;33.33;40.28;99923.44;5070141;28;19917;-46
2023/06/23 05:39:16;;;;;;;;;;;;;;;33.61;40.43;99917.88;5069713;28;19936;-42
2023/06/23 05:41:42;;;;;;;;;;;;;;;33.66;40.38;99914.91;5067294;28;20029;-42
2023/06/23 05:44:07;;;;;;;;;;;;;;;33.16;40.74;99921.78;5069222;28;20061;-41
2023/06/23 05:46:34;;;;;;;;;;;;;;;33.00;41.22;99916.22;5069201;28;20007;-41
2023/06/23 05:49:02;;;;;;;;;;;;;;;32.76;41.07;99916.28;5069524;28;20062;-41
2023/06/23 05:51:32;;;;;;;;;;;;;;;32.55;42.14;99911.72;5069710;28;20003;-43
2023/06/23 05:53:59;;;;;;;;;;;;;;;32.40;42.98;99915.97;5069668;28;20063;-43
2023/06/23 05:56:33;;;;;;;;;;;;;;;32.45;42.43;99913.00;5070222;28;19916;-43
2023/06/23 05:59:01;;;;;;;;;;;;;;;32.82;41.87;99914.91;5070927;28;19913;-41
2023/06/23 06:01:30;;;;;;;;;;;;;;;32.98;41.23;99915.75;5069920;28;20377;-43
2023/06/23 06:04:06;;;;;;;;;;;;;;;33.08;41.20;99920.75;5070722;28;19934;-44
2023/06/23 06:06:34;;;;;;;;;;;;;;;33.25;40.77;99922.44;5070846;28;19969;-42
2023/06/23 06:09:00;;;;;;;;;;;;;;;33.35;40.21;99915.59;5070510;28;20323;-42
2023/06/23 06:11:27;;;;;;;;;;;;;;;33.56;39.91;99920.09;5082293;28;19919;-43
2023/06/23 06:13:53;;;;;;;;;;;;;;;33.42;40.57;99917.78;5090651;28;19912;-40
2023/06/23 06:16:19;;;;;;;;;;;;;;;33.22;41.46;99914.88;5090901;28;19935;-42
2023/06/23 06:18:46;;;;;;;;;;;;;;;33.03;40.68;99915.50;5090645;28;19912;-43
2023/06/23 06:21:13;;;;;;;;;;;;;;;33.21;39.28;99909.72;5090683;28;19912;-42
2023/06/23 06:23:39;;;;;;;;;;;;;;;33.42;38.76;99907.53;5090609;28;19916;-41
2023/06/23 06:26:06;;;;;;;;;;;;;;;33.34;40.05;99908.50;5090589;28;20003;-42
2023/06/23 06:28:33;;;;;;;;;;;;;;;33.71;38.34;99918.53;5090399;28;19923;-42
2023/06/23 06:30:59;;;;;;;;;;;;;;;33.65;38.97;99920.75;5090495;28;19938;-42
2023/06/23 06:33:25;;;;;;;;;;;;;;;33.49;38.68;99913.25;5091219;28;20103;-42
2023/06/23 06:35:51;;;;;;;;;;;;;;;33.79;37.61;99906.50;5090483;28;20372;-42
2023/06/23 06:38:17;;;;;;;;;;;;;;;34.07;36.85;99909.16;5090696;28;19916;-42
2023/06/23 06:40:46;;;;;;;;;;;;;;;34.11;37.54;99903.75;5090784;28;20006;-42
2023/06/23 06:43:11;;;;;;;;;;;;;;;34.06;38.22;99907.56;5090661;28;19912;-42
2023/06/23 06:45:37;;;;;;;;;;;;;;;34.17;37.82;99914.16;5090661;28;20407;-41
2023/06/23 06:48:04;;;;;;;;;;;;;;;34.36;37.89;99901.56;5090518;28;19912;-43
2023/06/23 06:50:30;;;;;;;;;;;;;;;34.44;37.63;99908.84;5090407;28;19974;-42
2023/06/23 06:52:56;;;;;;;;;;;;;;;34.46;37.27;99899.06;5090692;28;20029;-43
2023/06/23 06:55:21;;;;;;;;;;;;;;;34.56;36.84;99900.44;5090688;28;19999;-42
2023/06/23 06:57:47;;;;;;;;;;;;;;;34.70;37.20;99901.94;5090586;28;20339;-42
2023/06/23 07:00:16;;;;;;;;;;;;;;;34.69;37.39;99908.63;5090841;28;20360;-42
2023/06/23 07:02:42;;;;;;;;;;;;;;;34.96;36.67;99904.06;5090215;28;19912;-42
2023/06/23 07:05:08;;;;;;;;;;;;;;;35.02;36.76;99899.81;5090287;28;19916;-41
2023/06/23 07:07:33;;;;;;;;;;;;;;;35.03;36.04;99905.00;5090859;28;19970;-42
2023/06/23 07:09:58;;;;;;;;;;;;;;;35.12;35.79;99898.44;5090475;28;19912;-41
2023/06/23 07:12:24;;;;;;;;;;;;;;;35.36;35.60;99894.56;5090090;28;19996;-42
2023/06/23 07:14:49;;;;;;;;;;;;;;;35.24;36.01;99898.28;5090598;28;19913;-42
2023/06/23 07:17:14;;;;;;;;;;;;;;;35.43;35.21;99898.25;5090343;28;19974;-42
2023/06/23 07:19:40;;;;;;;;;;;;;;;35.39;35.84;99897.38;5090297;28;19999;-41
2023/06/23 07:22:06;;;;;;;;;;;;;;;35.59;35.30;99895.38;5090002;28;19913;-42
2023/06/23 07:24:31;;;;;;;;;;;;;;;35.82;34.35;99895.38;5090151;28;19916;-42
2023/06/23 07:26:56;;;;;;;;;;;;;;;36.00;33.45;99889.31;5089637;28;19920;-44
2023/06/23 07:29:21;;;;;;;;;;;;;;;35.72;34.10;99895.19;5090069;28;20233;-43
2023/06/23 07:31:47;;;;;;;;;;;;;;;35.38;35.01;99892.22;5090102;28;19920;-41
2023/06/23 07:34:12;;;;;;;;;;;;;;;35.30;34.64;99891.31;5092374;28;19927;-42
2023/06/23 07:36:37;;;;;;;;;;;;;;;34.98;35.05;99890.66;5094005;28;19923;-42
2023/06/23 07:39:03;;;;;;;;;;;;;;;35.03;35.29;99893.13;5094474;28;20343;-42
2023/06/23 07:41:28;;;;;;;;;;;;;;;35.20;35.22;99889.13;5094071;28;19912;-44
2023/06/23 07:43:53;;;;;;;;;;;;;;;35.52;35.40;99891.69;5094084;28;19919;-43
2023/06/23 07:46:19;;;;;;;;;;;;;;;35.62;34.59;99896.59;5093857;28;19920;-42
2023/06/23 07:48:44;;;;;;;;;;;;;;;35.76;34.96;99890.53;5093693;28;20000;-42
2023/06/23 07:51:09;;;;;;;;;;;;;;;35.66;35.57;99882.81;5093857;28;20397;-41
2023/06/23 07:53:35;;;;;;;;;;;;;;;35.55;34.56;99886.22;5093802;28;19969;-42
2023/06/23 07:56:00;;;;;;;;;;;;;;;35.26;35.72;99882.13;5093437;28;20011;-42
2023/06/23 07:58:25;;;;;;;;;;;;;;;35.53;35.40;99887.72;5093428;28;19912;-43
2023/06/23 08:00:53;;;;;;;;;;;;;;;35.01;36.33;99881.63;5093596;28;19912;-43
2023/06/23 08:03:18;;;;;;;;;;;;;;;34.56;36.16;99864.53;5093311;28;19936;-41
2023/06/23 08:05:44;;;;;;;;;;;;;;;34.68;36.40;99866.38;5093245;28;20412;-41
2023/06/23 08:08:09;;;;;;;;;;;;;;;34.40;37.45;99869.31;5093790;28;20428;-43
2023/06/23 08:10:35;;;;;;;;;;;;;;;33.78;38.41;99874.56;5093233;28;19955;-42
2023/06/23 08:13:00;;;;;;;;;;;;;;;33.44;39.62;99860.31;5093448;28;20015;-42
2023/06/23 08:15:26;;;;;;;;;;;;;;;34.04;38.62;99862.94;5093518;28;20014;-43
2023/06/23 08:17:51;;;;;;;;;;;;;;;34.19;38.02;99864.91;5093428;28;20362;-43
2023/06/23 08:20:17;;;;;;;;;;;;;;;34.38;38.88;99864.13;5093517;28;19976;-43
2023/06/23 08:22:42;;;;;;;;;;;;;;;34.37;38.52;99859.78;5091739;28;19925;-42
2023/06/23 08:25:08;;;;;;;;;;;;;;;34.13;38.17;99860.00;5093002;28;19912;-42
2023/06/23 08:27:33;;;;;;;;;;;;;;;34.16;37.88;99860.13;5093014;28;20364;-43
2023/06/23 08:29:58;;;;;;;;;;;;;;;34.54;38.13;99863.28;5092865;28;19916;-43
2023/06/23 08:32:24;;;;;;;;;;;;;;;35.78;35.64;99852.22;5092657;28;19931;-44
2023/06/23 08:34:49;;;;;;;;;;;;;;;36.00;34.53;99851.38;5092784;28;19912;-43
2023/06/23 08:37:14;;;;;;;;;;;;;;;36.27;33.58;99850.56;5093090;28;19924;-43
2023/06/23 08:39:40;;;;;;;;;;;;;;;35.81;33.91;99843.97;5092802;28;19923;-43
2023/06/23 08:42:05;;;;;;;;;;;;;;;36.44;33.26;99849.19;5092783;28;19932;-44
2023/06/23 08:44:34;;;;;;;;;;;;;;;36.31;32.79;99838.38;5092191;28;19912;-44
2023/06/23 08:47:02;;;;;;;;;;;;;;;36.63;32.67;99839.94;5092286;28;19913;-44
2023/06/23 08:49:30;;;;;;;;;;;;;;;36.57;32.87;99834.72;5092440;28;20019;-42
2023/06/23 08:51:56;;;;;;;;;;;;;;;36.66;32.03;99836.44;5092310;28;19931;-42
2023/06/23 08:54:22;;;;;;;;;;;;;;;36.03;33.27;99826.88;5092507;28;19916;-41
2023/06/23 08:56:47;;;;;;;;;;;;;;;35.31;34.08;99834.81;5092256;28;20475;-43
2023/06/23 08:59:13;;;;;;;;;;;;;;;35.99;33.81;99829.59;5092351;28;19961;-43
2023/06/23 09:01:38;;;;;;;;;;;;;;;36.44;33.08;99811.22;5092345;28;19912;-44
2023/06/23 09:04:03;;;;;;;;;;;;;;;36.75;33.45;99823.88;5092394;28;19916;-41
2023/06/23 09:06:29;;;;;;;;;;;;;;;36.68;32.42;99832.13;5092336;28;19912;-42
2023/06/23 09:08:55;;;;;;;;;;;;;;;36.06;34.04;99823.34;5092539;28;19923;-41
2023/06/23 09:11:20;;;;;;;;;;;;;;;36.75;33.04;99825.88;5092123;28;20006;-42
2023/06/23 09:13:47;;;;;;;;;;;;;;;36.98;30.88;99818.19;5092367;28;20026;-43
2023/06/23 09:16:15;;;;;;;;;;;;;;;36.54;32.64;99826.38;5092016;28;20295;-45
2023/06/23 09:18:41;;;;;;;;;;;;;;;36.20;33.48;99821.59;5092034;28;19916;-42
2023/06/23 09:21:06;;;;;;;;;;;;;;;36.35;32.45;99819.03;5092076;28;19923;-43
2023/06/23 09:23:33;;;;;;;;;;;;;;;36.49;31.78;99813.66;5091754;28;19912;-45
2023/06/23 09:25:59;;;;;;;;;;;;;;;36.41;31.17;99809.22;5091776;28;20505;-45
2023/06/23 09:28:26;;;;;;;;;;;;;;;36.53;32.29;99814.50;5091646;28;19969;-43
2023/06/23 09:31:12;;;;;;;;;;;;;;;37.04;31.79;99806.75;5091648;28;19962;-42
2023/06/23 09:33:50;;;;;;;;;;;;;;;37.21;30.77;99810.91;5091654;28;19981;-41
2023/06/23 09:36:16;;;;;;;;;;;;;;;37.29;30.87;99804.22;5091671;28;19916;-43
2023/06/23 09:38:42;;;;;;;;;;;;;;;37.34;30.81;99796.34;5092029;28;20364;-42
2023/06/23 09:41:07;;;;;;;;;;;;;;;37.63;31.26;99795.81;5091741;28;20330;-42
2023/06/23 09:43:52;;;;;;;;;;;;;;;38.03;30.60;99794.06;5091262;28;19919;-42
2023/06/23 09:46:19;;;;;;;;;;;;;;;38.09;29.67;99787.75;5091542;28;19919;-43
2023/06/23 09:48:45;;;;;;;;;;;;;;;37.26;30.84;99799.44;5091747;28;19919;-43
2023/06/23 09:51:11;;;;;;;;;;;;;;;37.20;31.11;99787.09;5091707;28;19912;-42
2023/06/23 09:53:37;;;;;;;;;;;;;;;37.33;30.66;99780.09;5091527;28;20423;-43
2023/06/23 09:56:03;;;;;;;;;;;;;;;37.26;32.04;99780.84;5091266;28;19998;-41
2023/06/23 09:58:39;;;;;;;;;;;;;;;37.87;31.52;99784.06;5091539;28;20324;-43
2023/06/23 10:01:06;;;;;;;;;;;;;;;36.87;31.73;99783.22;5091485;28;20309;-43
2023/06/23 10:03:32;;;;;;;;;;;;;;;36.74;32.81;99771.59;5091215;28;19912;-43
2023/06/23 10:05:58;;;;;;;;;;;;;;;36.30;33.32;99778.59;5091193;28;19950;-42
2023/06/23 10:08:23;;;;;;;;;;;;;;;36.32;31.77;99778.22;5091446;28;20325;-44
2023/06/23 10:10:48;;;;;;;;;;;;;;;36.22;31.11;99773.38;5091226;28;20019;-43
2023/06/23 10:13:14;;;;;;;;;;;;;;;36.59;31.54;99768.66;5091332;28;20376;-42
2023/06/23 10:15:41;;;;;;;;;;;;;;;36.35;31.78;99771.94;5091189;28;19916;-43
2023/06/23 10:18:06;;;;;;;;;;;;;;;35.97;32.67;99765.50;5091155;28;19976;-44
2023/06/23 10:20:32;;;;;;;;;;;;;;;36.19;31.78;99759.09;5090819;28;19920;-43
2023/06/23 10:22:58;;;;;;;;;;;;;;;36.19;31.59;99758.28;5091163;28;19912;-42
2023/06/23 10:25:24;;;;;;;;;;;;;;;35.72;32.96;99765.13;5090865;28;20375;-42
2023/06/23 10:27:51;;;;;;;;;;;;;;;34.79;33.63;99764.34;5091302;28;19935;-41
2023/06/23 10:30:17;;;;;;;;;;;;;;;35.00;33.68;99752.88;5091124;28;19920;-43
2023/06/23 10:32:46;;;;;;;;;;;;;;;35.34;33.03;99753.88;5091083;28;19924;-43
2023/06/23 10:35:11;;;;;;;;;;;;;;;35.38;33.15;99746.44;5091308;28;19920;-44
2023/06/23 10:37:38;;;;;;;;;;;;;;;34.82;34.47;99752.56;5091227;28;19916;-44
2023/06/23 10:40:04;;;;;;;;;;;;;;;34.05;36.14;99763.22;5091573;28;20316;-43
2023/06/23 10:42:33;;;;;;;;;;;;;;;33.87;34.31;99745.47;5090847;28;19919;-47
2023/06/23 10:44:58;;;;;;;;;;;;;;;34.32;34.12;99737.78;5090850;28;19912;-42
2023/06/23 10:47:24;;;;;;;;;;;;;;;34.54;34.90;99737.03;5090643;28;20022;-42
2023/06/23 10:49:49;;;;;;;;;;;;;;;34.82;33.75;99731.25;5090650;28;19912;-43
2023/06/23 10:52:15;;;;;;;;;;;;;;;34.77;34.59;99736.28;5090659;28;19912;-47
2023/06/23 10:54:43;;;;;;;;;;;;;;;34.49;34.73;99722.72;5090736;28;20437;-44
2023/06/23 10:57:12;;;;;;;;;;;;;;;34.51;35.17;99725.91;5090912;28;19916;-43
2023/06/23 10:59:56;;;;;;;;;;;;;;;34.43;34.40;99722.22;5090755;28;19912;-41
2023/06/23 11:02:22;;;;;;;;;;;;;;;35.82;31.26;99714.69;5090607;28;20023;-42
2023/06/23 11:04:52;;;;;;;;;;;;;;;35.86;31.65;99720.25;5090803;28;19912;-41
2023/06/23 11:07:17;;;;;;;;;;;;;;;35.35;32.66;99707.66;5090605;28;20004;-44
2023/06/23 11:09:55;;;;;;;;;;;;;;;35.54;32.33;99710.31;5093725;28;19955;-43
2023/06/23 11:12:38;;;;;;;;;;;;;;;36.65;30.37;99699.84;5094606;28;19912;-42
2023/06/23 11:15:10;;;;;;;;;;;;;;;36.06;30.50;99694.00;5093866;28;19947;-42
2023/06/23 11:17:39;;;;;;;;;;;;;;;36.73;29.28;99692.41;5093733;28;19916;-42
2023/06/23 11:20:08;;;;;;;;;;;;;;;36.44;31.02;99699.59;5093667;28;19912;-44
2023/06/23 11:22:37;;;;;;;;;;;;;;;35.56;32.65;99690.56;5094165;28;19912;-43
2023/06/23 11:25:04;;;;;;;;;;;;;;;35.99;31.89;99689.19;5094402;28;20360;-42
2023/06/23 11:27:30;;;;;;;;;;;;;;;36.59;31.49;99682.75;5094150;28;20002;-43
2023/06/23 11:30:15;;;;;;;;;;;;;;;36.90;30.47;99682.63;5094606;28;20002;-43
2023/06/23 11:32:40;;;;;;;;;;;;;;;37.59;29.63;99681.19;5094072;28;19981;-44
2023/06/23 11:35:07;;;;;;;;;;;;;;;37.80;29.67;99686.84;5094213;28;20330;-43
2023/06/23 11:37:33;;;;;;;;;;;;;;;37.16;29.28;99676.13;5094212;28;19916;-43
2023/06/23 11:40:00;;;;;;;;;;;;;;;38.11;27.85;99670.72;5094239;28;20027;-43
2023/06/23 11:42:26;;;;;;;;;;;;;;;37.95;27.88;99682.16;5094057;28;19926;-43
2023/06/23 11:44:54;;;;;;;;;;;;;;;36.81;28.99;99671.88;5094196;28;20280;-43
2023/06/23 11:47:23;;;;;;;;;;;;;;;37.17;29.14;99669.41;5093668;28;19920;-43
2023/06/23 11:49:49;;;;;;;;;;;;;;;37.31;28.31;99665.94;5093854;28;19949;-43
2023/06/23 11:52:14;;;;;;;;;;;;;;;38.00;27.31;99673.44;5093835;28;19912;-43
2023/06/23 11:54:40;;;;;;;;;;;;;;;37.56;27.45;99666.88;5093620;28;19916;-43
2023/06/23 11:57:06;;;;;;;;;;;;;;;37.56;27.32;99666.88;5093743;28;20006;-44
2023/06/23 11:59:35;;;;;;;;;;;;;;;37.40;28.72;99657.28;5093845;28;19912;-43
2023/06/23 12:02:00;;;;;;;;;;;;;;;37.31;29.05;99655.63;5093322;28;20015;-42
2023/06/23 12:04:26;;;;;;;;;;;;;;;37.38;29.98;99666.00;5093670;28;20026;-45
2023/06/23 12:06:51;;;;;;;;;;;;;;;37.35;29.51;99652.88;5093250;28;19919;-44
2023/06/23 12:09:20;;;;;;;;;;;;;;;37.17;29.42;99650.00;5093191;28;19938;-43
2023/06/23 12:11:45;;;;;;;;;;;;;;;37.12;29.83;99637.25;5092901;28;19953;-41
2023/06/23 12:14:10;;;;;;;;;;;;;;;36.94;30.12;99641.91;5093415;28;19912;-44
2023/06/23 12:16:37;;;;;;;;;;;;;;;36.96;29.17;99636.75;5093452;28;19940;-44
2023/06/23 12:19:02;;;;;;;;;;;;;;;37.47;28.95;99643.44;5092938;28;20374;-45
2023/06/23 12:21:28;;;;;;;;;;;;;;;36.14;30.26;99632.00;5090405;28;19916;-40
2023/06/23 12:23:54;;;;;;;;;;;;;;;35.35;31.58;99631.00;5089347;28;19950;-42
2023/06/23 12:26:19;;;;;;;;;;;;;;;35.42;31.88;99633.09;5093196;28;20412;-37
2023/06/23 12:28:44;;;;;;;;;;;;;;;35.30;31.59;99634.09;5093037;28;20112;-37
2023/06/23 12:31:10;;;;;;;;;;;;;;;35.71;31.50;99622.41;5092601;28;19931;-36
2023/06/23 12:33:38;;;;;;;;;;;;;;;36.14;30.45;99612.63;5092207;28;19916;-37
2023/06/23 12:36:04;;;;;;;;;;;;;;;36.29;30.08;99610.84;5092286;28;19973;-37
2023/06/23 12:38:36;;;;;;;;;;;;;;;36.17;30.39;99606.34;5092373;28;19916;-37
2023/06/23 12:41:24;;;;;;;;;;;;;;;36.35;31.12;99605.75;5089965;28;19912;-37
2023/06/23 12:43:53;;;;;;;;;;;;;;;35.82;30.52;99607.53;5088593;28;19916;-37
2023/06/23 12:46:22;;;;;;;;;;;;;;;35.61;30.73;99608.03;5088743;28;19912;-35
2023/06/23 12:48:48;;;;;;;;;;;;;;;34.89;31.98;99606.22;5092634;28;20037;-36